Time,TemperatureF,DewpointF,PressureIn,WindDirection,WindDirectionDegrees,WindSpeedMPH,WindSpeedGustMPH,Humidity,HourlyPrecipIn,Conditions,Clouds,dailyrainin,SoftwareType,DateUTC
2013-04-21 00:02:00,31.1,18.8,30.21,ENE,65,0.0,0.0,60,0.00,,,0.00,Weather View 32 v70,2013-04-21 07:02:00,
2013-04-21 00:08:00,30.9,19.0,30.21,ENE,65,0.0,0.0,61,0.00,,,0.00,Weather View 32 v70,2013-04-21 07:08:00,
2013-04-21 00:13:00,30.7,18.9,30.21,ENE,65,0.0,0.0,61,0.00,,,0.00,Weather View 32 v70,2013-04-21 07:13:00,
2013-04-21 00:18:00,30.6,19.5,30.21,ENE,65,0.0,0.0,63,0.00,,,0.00,Weather View 32 v70,2013-04-21 07:18:00,
2013-04-21 00:23:00,30.4,18.9,30.21,ENE,65,0.0,0.0,62,0.00,,,0.00,Weather View 32 v70,2013-04-21 07:23:00,
2013-04-21 00:28:00,30.4,19.3,30.21,ENE,65,0.0,0.0,63,0.00,,,0.00,Weather View 32 v70,2013-04-21 07:28:00,
2013-04-21 00:33:00,30.2,20.6,30.21,ENE,65,0.0,0.0,67,0.00,,,0.00,Weather View 32 v70,2013-04-21 07:33:00,
2013-04-21 00:38:00,30.2,20.6,30.21,ENE,65,0.0,0.0,67,0.00,,,0.00,Weather View 32 v70,2013-04-21 07:38:00,
2013-04-21 00:43:00,30.4,20.7,30.21,ENE,65,0.0,0.0,67,0.00,,,0.00,Weather View 32 v70,2013-04-21 07:43:00,
2013-04-21 00:48:00,30.4,20.4,30.21,ENE,65,0.0,0.0,66,0.00,,,0.00,Weather View 32 v70,2013-04-21 07:48:00,
2013-04-21 00:53:00,30.2,20.2,30.21,ENE,65,0.0,0.0,66,0.00,,,0.00,Weather View 32 v70,2013-04-21 07:53:00,
2013-04-21 00:58:00,30.2,19.8,30.21,ENE,65,0.0,0.0,65,0.00,,,0.00,Weather View 32 v70,2013-04-21 07:58:00,
2013-04-21 01:03:00,30.0,19.7,30.21,ENE,65,3.0,4.0,65,0.00,,,0.00,Weather View 32 v70,2013-04-21 08:03:00,
2013-04-21 01:08:00,30.0,19.7,30.21,ENE,65,2.0,4.0,65,0.00,,,0.00,Weather View 32 v70,2013-04-21 08:08:00,
2013-04-21 01:13:00,30.0,20.0,30.21,ENE,65,3.0,4.0,66,0.00,,,0.00,Weather View 32 v70,2013-04-21 08:13:00,
2013-04-21 01:18:00,30.2,20.6,30.21,ENE,65,0.0,4.0,67,0.00,,,0.00,Weather View 32 v70,2013-04-21 08:18:00,
2013-04-21 01:23:00,30.0,20.4,30.21,ENE,65,0.0,4.0,67,0.00,,,0.00,Weather View 32 v70,2013-04-21 08:23:00,
2013-04-21 01:28:00,30.2,20.9,30.21,ENE,65,3.0,4.0,68,0.00,,,0.00,Weather View 32 v70,2013-04-21 08:28:00,
2013-04-21 01:33:00,30.2,20.9,30.21,West,265,3.0,4.0,68,0.00,,,0.00,Weather View 32 v70,2013-04-21 08:33:00,
2013-04-21 01:38:00,30.0,20.7,30.21,West,265,2.0,4.0,68,0.00,,,0.00,Weather View 32 v70,2013-04-21 08:38:00,
2013-04-21 01:43:00,30.0,20.7,30.21,West,265,0.0,4.0,68,0.00,,,0.00,Weather View 32 v70,2013-04-21 08:43:00,
2013-04-21 01:48:00,29.8,20.6,30.21,West,265,0.0,4.0,68,0.00,,,0.00,Weather View 32 v70,2013-04-21 08:48:00,
2013-04-21 01:53:00,29.7,20.4,30.21,West,265,0.0,4.0,68,0.00,,,0.00,Weather View 32 v70,2013-04-21 08:53:00,
2013-04-21 01:58:00,29.3,20.7,30.21,West,265,0.0,4.0,70,0.00,,,0.00,Weather View 32 v70,2013-04-21 08:58:00,
2013-04-21 02:03:00,29.1,20.6,30.21,West,265,0.0,4.0,70,0.00,,,0.00,Weather View 32 v70,2013-04-21 09:03:00,
2013-04-21 02:09:00,29.1,20.9,30.21,West,265,0.0,4.0,71,0.00,,,0.00,Weather View 32 v70,2013-04-21 09:09:00,
2013-04-21 02:14:00,29.3,21.1,30.21,West,265,0.0,4.0,71,0.00,,,0.00,Weather View 32 v70,2013-04-21 09:14:00,
2013-04-21 02:19:00,29.1,21.2,30.21,West,265,0.0,4.0,72,0.00,,,0.00,Weather View 32 v70,2013-04-21 09:19:00,
2013-04-21 02:24:00,28.9,20.7,30.21,West,265,0.0,4.0,71,0.00,,,0.00,Weather View 32 v70,2013-04-21 09:24:00,
2013-04-21 02:29:00,28.9,20.7,30.21,West,265,0.0,4.0,71,0.00,,,0.00,Weather View 32 v70,2013-04-21 09:29:00,
2013-04-21 02:34:00,28.6,20.0,30.21,West,265,0.0,4.0,70,0.00,,,0.00,Weather View 32 v70,2013-04-21 09:34:00,
2013-04-21 02:39:00,28.6,20.0,30.21,West,265,0.0,3.0,70,0.00,,,0.00,Weather View 32 v70,2013-04-21 09:39:00,
2013-04-21 02:44:00,28.4,19.9,30.21,West,265,0.0,0.0,70,0.00,,,0.00,Weather View 32 v70,2013-04-21 09:44:00,
2013-04-21 02:49:00,28.2,20.0,30.21,West,265,0.0,0.0,71,0.00,,,0.00,Weather View 32 v70,2013-04-21 09:49:00,
2013-04-21 02:54:00,28.2,20.0,30.21,West,265,0.0,0.0,71,0.00,,,0.00,Weather View 32 v70,2013-04-21 09:54:00,
2013-04-21 02:59:00,28.0,20.2,30.21,West,265,0.0,0.0,72,0.00,,,0.00,Weather View 32 v70,2013-04-21 09:59:00,
2013-04-21 03:04:00,28.0,19.9,30.21,West,265,0.0,0.0,71,0.00,,,0.00,Weather View 32 v70,2013-04-21 10:04:00,
2013-04-21 03:09:00,27.9,19.7,30.21,West,265,0.0,0.0,71,0.00,,,0.00,Weather View 32 v70,2013-04-21 10:09:00,
2013-04-21 03:14:00,27.9,19.7,30.21,West,265,0.0,0.0,71,0.00,,,0.00,Weather View 32 v70,2013-04-21 10:14:00,
2013-04-21 03:19:00,27.9,19.3,30.21,West,265,0.0,0.0,70,0.00,,,0.00,Weather View 32 v70,2013-04-21 10:19:00,
2013-04-21 03:24:00,27.7,19.2,30.21,West,265,0.0,0.0,70,0.00,,,0.00,Weather View 32 v70,2013-04-21 10:24:00,
2013-04-21 03:29:00,27.5,19.0,30.21,West,265,0.0,0.0,70,0.00,,,0.00,Weather View 32 v70,2013-04-21 10:29:00,
2013-04-21 03:34:00,27.3,18.8,30.21,West,265,0.0,0.0,70,0.00,,,0.00,Weather View 32 v70,2013-04-21 10:34:00,
2013-04-21 03:39:00,27.1,19.0,30.21,West,265,0.0,0.0,71,0.00,,,0.00,Weather View 32 v70,2013-04-21 10:39:00,
2013-04-21 03:44:00,27.1,19.0,30.21,West,265,0.0,0.0,71,0.00,,,0.00,Weather View 32 v70,2013-04-21 10:44:00,
2013-04-21 03:49:00,27.0,18.8,30.21,West,265,0.0,0.0,71,0.00,,,0.00,Weather View 32 v70,2013-04-21 10:49:00,
2013-04-21 03:54:00,27.0,19.1,30.21,West,265,0.0,0.0,72,0.00,,,0.00,Weather View 32 v70,2013-04-21 10:54:00,
2013-04-21 03:59:00,26.8,19.6,30.21,West,265,0.0,0.0,74,0.00,,,0.00,Weather View 32 v70,2013-04-21 10:59:00,
2013-04-21 04:04:00,26.8,19.6,30.21,West,265,0.0,0.0,74,0.00,,,0.00,Weather View 32 v70,2013-04-21 11:04:00,
2013-04-21 04:09:00,26.8,19.6,30.21,West,265,0.0,0.0,74,0.00,,,0.00,Weather View 32 v70,2013-04-21 11:09:00,
2013-04-21 04:14:00,26.6,19.4,30.21,West,265,0.0,0.0,74,0.00,,,0.00,Weather View 32 v70,2013-04-21 11:14:00,
2013-04-21 04:20:00,26.4,18.9,30.21,West,265,0.0,0.0,73,0.00,,,0.00,Weather View 32 v70,2013-04-21 11:20:00,
2013-04-21 04:25:00,26.2,18.8,30.21,West,265,0.0,0.0,73,0.00,,,0.00,Weather View 32 v70,2013-04-21 11:25:00,
2013-04-21 04:30:00,26.2,18.8,30.21,West,265,0.0,0.0,73,0.00,,,0.00,Weather View 32 v70,2013-04-21 11:30:00,
2013-04-21 04:35:00,26.1,18.6,30.21,West,265,0.0,0.0,73,0.00,,,0.00,Weather View 32 v70,2013-04-21 11:35:00,
2013-04-21 04:40:00,25.9,18.1,30.21,West,265,0.0,0.0,72,0.00,,,0.00,Weather View 32 v70,2013-04-21 11:40:00,
2013-04-21 04:45:00,25.7,18.2,30.21,West,265,0.0,0.0,73,0.00,,,0.00,Weather View 32 v70,2013-04-21 11:45:00,
2013-04-21 04:50:00,25.7,18.6,30.21,West,265,0.0,0.0,74,0.00,,,0.00,Weather View 32 v70,2013-04-21 11:50:00,
2013-04-21 04:55:00,25.7,18.2,30.21,West,265,0.0,0.0,73,0.00,,,0.00,Weather View 32 v70,2013-04-21 11:55:00,
2013-04-21 05:00:00,25.7,18.2,30.21,West,265,0.0,0.0,73,0.00,,,0.00,Weather View 32 v70,2013-04-21 12:00:00,
2013-04-21 05:05:00,25.5,18.1,30.21,West,265,0.0,0.0,73,0.00,,,0.00,Weather View 32 v70,2013-04-21 12:05:00,
2013-04-21 05:10:00,25.3,17.9,30.21,West,265,0.0,0.0,73,0.00,,,0.00,Weather View 32 v70,2013-04-21 12:10:00,
2013-04-21 05:15:00,25.3,18.8,30.21,West,265,0.0,0.0,76,0.00,,,0.00,Weather View 32 v70,2013-04-21 12:15:00,
2013-04-21 05:20:00,25.2,19.0,30.21,West,265,0.0,0.0,77,0.00,,,0.00,Weather View 32 v70,2013-04-21 12:20:00,
2013-04-21 05:25:00,25.3,20.0,30.21,West,265,0.0,0.0,80,0.00,,,0.00,Weather View 32 v70,2013-04-21 12:25:00,
2013-04-21 05:30:00,25.5,20.8,30.21,West,264,3.0,3.0,82,0.00,,,0.00,Weather View 32 v70,2013-04-21 12:30:00,
2013-04-21 05:35:00,25.5,20.8,30.21,WSW,248,0.0,4.0,82,0.00,,,0.00,Weather View 32 v70,2013-04-21 12:35:00,
2013-04-21 05:40:00,25.5,20.8,30.21,WSW,248,0.0,4.0,82,0.00,,,0.00,Weather View 32 v70,2013-04-21 12:40:00,
2013-04-21 05:45:00,25.5,20.5,30.21,WSW,248,0.0,4.0,81,0.00,,,0.00,Weather View 32 v70,2013-04-21 12:45:00,
2013-04-21 05:50:00,25.7,20.7,30.21,WSW,247,0.0,4.0,81,0.00,,,0.00,Weather View 32 v70,2013-04-21 12:50:00,
2013-04-21 05:55:00,28.0,25.2,30.21,WSW,239,0.0,4.0,89,0.00,,,0.00,Weather View 32 v70,2013-04-21 12:55:00,
2013-04-21 06:00:00,28.0,25.5,30.21,WSW,239,0.0,4.0,90,0.00,,,0.00,Weather View 32 v70,2013-04-21 13:00:00,
2013-04-21 06:05:00,27.9,25.3,30.21,WSW,244,3.0,4.0,90,0.00,,,0.00,Weather View 32 v70,2013-04-21 13:05:00,
2013-04-21 06:10:00,28.0,25.8,30.21,WSW,254,3.0,4.0,91,0.00,,,0.00,Weather View 32 v70,2013-04-21 13:10:00,
2013-04-21 06:15:00,28.6,26.3,30.21,WSW,251,0.0,5.0,91,0.00,,,0.00,Weather View 32 v70,2013-04-21 13:15:00,
2013-04-21 06:20:00,28.9,26.6,30.21,WSW,252,0.0,5.0,91,0.00,,,0.00,Weather View 32 v70,2013-04-21 13:20:00,
2013-04-21 06:25:00,29.3,27.0,30.21,WSW,254,4.0,5.0,91,0.00,,,0.00,Weather View 32 v70,2013-04-21 13:25:00,
2013-04-21 06:30:00,29.5,27.2,30.21,West,266,4.0,5.0,91,0.00,,,0.00,Weather View 32 v70,2013-04-21 13:30:00,
2013-04-21 06:36:00,31.1,29.3,30.21,WNW,285,4.0,6.0,93,0.00,,,0.00,Weather View 32 v70,2013-04-21 13:36:00,
2013-04-21 06:41:00,32.0,30.2,30.21,WSW,256,3.0,6.0,93,0.00,,,0.00,Weather View 32 v70,2013-04-21 13:41:00,
2013-04-21 06:46:00,32.7,30.9,30.21,WSW,242,0.0,6.0,93,0.00,,,0.00,Weather View 32 v70,2013-04-21 13:46:00,
2013-04-21 06:51:00,33.3,30.9,30.21,SW,226,4.0,6.0,91,0.00,,,0.00,Weather View 32 v70,2013-04-21 13:51:00,
2013-04-21 06:56:00,33.6,29.0,30.21,SW,226,3.0,6.0,83,0.00,,,0.00,Weather View 32 v70,2013-04-21 13:56:00,
2013-04-21 07:01:00,34.3,25.9,30.21,SW,225,3.0,6.0,71,0.00,,,0.00,Weather View 32 v70,2013-04-21 14:01:00,
2013-04-21 07:06:00,34.9,25.7,30.21,SW,228,2.0,6.0,69,0.00,,,0.00,Weather View 32 v70,2013-04-21 14:06:00,
2013-04-21 07:11:00,35.4,25.9,30.21,WSW,257,4.0,6.0,68,0.00,,,0.00,Weather View 32 v70,2013-04-21 14:11:00,
2013-04-21 07:16:00,36.0,26.4,30.21,WSW,257,3.0,6.0,68,0.00,,,0.00,Weather View 32 v70,2013-04-21 14:16:00,
2013-04-21 07:21:00,36.5,26.6,30.21,WSW,258,3.0,6.0,67,0.00,,,0.00,Weather View 32 v70,2013-04-21 14:21:00,
2013-04-21 07:26:00,37.0,26.7,30.21,West,281,4.0,6.0,66,0.00,,,0.00,Weather View 32 v70,2013-04-21 14:26:00,
2013-04-21 07:30:00,37.4,26.3,30.21,West,269,4.0,6.0,64,0.00,,,0.00,Weather View 32 v70,2013-04-21 14:30:00,
2013-04-21 07:31:00,37.4,26.3,30.21,West,269,4.0,6.0,64,0.00,,,0.00,Weather View 32 v70,2013-04-21 14:31:00,
2013-04-21 07:36:00,37.6,24.9,30.21,WSW,250,6.0,6.0,60,0.00,,,0.00,Weather View 32 v70,2013-04-21 14:36:00,
2013-04-21 07:41:00,37.6,24.9,30.21,West,266,4.0,6.0,60,0.00,,,0.00,Weather View 32 v70,2013-04-21 14:41:00,
2013-04-21 07:46:00,37.6,24.5,30.21,West,265,3.0,6.0,59,0.00,,,0.00,Weather View 32 v70,2013-04-21 14:46:00,
2013-04-21 07:51:00,37.9,24.9,30.21,West,264,3.0,6.0,59,0.00,,,0.00,Weather View 32 v70,2013-04-21 14:51:00,
2013-04-21 07:56:00,38.7,25.1,30.21,West,262,2.0,6.0,58,0.00,,,0.00,Weather View 32 v70,2013-04-21 14:56:00,
2013-04-21 08:01:00,39.4,25.0,30.21,WSW,256,2.0,6.0,56,0.00,,,0.00,Weather View 32 v70,2013-04-21 15:01:00,
2013-04-21 08:06:00,40.3,25.8,30.18,West,281,4.0,6.0,56,0.00,,,0.00,Weather View 32 v70,2013-04-21 15:06:00,
2013-04-21 08:11:00,41.2,25.3,30.18,WSW,249,2.0,6.0,53,0.00,,,0.00,Weather View 32 v70,2013-04-21 15:11:00,
2013-04-21 08:16:00,42.1,25.2,30.18,West,262,4.0,6.0,51,0.00,,,0.00,Weather View 32 v70,2013-04-21 15:16:00,
2013-04-21 08:21:00,43.0,24.6,30.21,WSW,251,3.0,7.0,48,0.00,,,0.00,Weather View 32 v70,2013-04-21 15:21:00,
2013-04-21 08:26:00,43.9,25.4,30.21,WNW,299,0.0,7.0,48,0.00,,,0.00,Weather View 32 v70,2013-04-21 15:26:00,
2013-04-21 08:30:00,44.4,25.9,30.21,West,265,3.0,7.0,48,0.00,,,0.00,Weather View 32 v70,2013-04-21 15:30:00,
2013-04-21 08:31:00,44.6,25.6,30.21,West,267,4.0,7.0,47,0.00,,,0.00,Weather View 32 v70,2013-04-21 15:31:00,
2013-04-21 08:37:00,45.9,25.1,30.21,SW,235,4.0,7.0,44,0.00,,,0.00,Weather View 32 v70,2013-04-21 15:37:00,
2013-04-21 08:42:00,46.6,25.8,30.21,SW,224,0.0,7.0,44,0.00,,,0.00,Weather View 32 v70,2013-04-21 15:42:00,
2013-04-21 08:47:00,46.9,25.6,30.21,SW,224,3.0,7.0,43,0.00,,,0.00,Weather View 32 v70,2013-04-21 15:47:00,
2013-04-21 08:52:00,47.3,25.3,30.21,SW,224,0.0,7.0,42,0.00,,,0.00,Weather View 32 v70,2013-04-21 15:52:00,
2013-04-21 08:57:00,47.7,25.7,30.21,SW,223,3.0,7.0,42,0.00,,,0.00,Weather View 32 v70,2013-04-21 15:57:00,
2013-04-21 09:02:00,47.7,25.1,30.21,SW,224,0.0,7.0,41,0.00,,,0.00,Weather View 32 v70,2013-04-21 16:02:00,
2013-04-21 09:07:00,48.6,25.9,30.21,SW,224,4.0,7.0,41,0.00,,,0.00,Weather View 32 v70,2013-04-21 16:07:00,
2013-04-21 09:12:00,50.2,26.7,30.21,SW,224,3.0,7.0,40,0.00,,,0.00,Weather View 32 v70,2013-04-21 16:12:00,
2013-04-21 09:17:00,52.3,27.4,30.21,SW,224,0.0,7.0,38,0.00,,,0.00,Weather View 32 v70,2013-04-21 16:17:00,
2013-04-21 09:22:00,52.0,26.5,30.21,SW,224,3.0,6.0,37,0.00,,,0.00,Weather View 32 v70,2013-04-21 16:22:00,
2013-04-21 09:27:00,52.2,26.6,30.21,SW,224,0.0,6.0,37,0.00,,,0.00,Weather View 32 v70,2013-04-21 16:27:00,
2013-04-21 09:30:00,53.2,27.6,30.21,North,357,4.0,6.0,37,0.00,,,0.00,Weather View 32 v70,2013-04-21 16:30:00,
2013-04-21 09:32:00,53.6,27.2,30.21,NE,40,3.0,6.0,36,0.00,,,0.00,Weather View 32 v70,2013-04-21 16:32:00,
2013-04-21 09:37:00,53.6,27.2,30.18,NE,56,3.0,6.0,36,0.00,,,0.00,Weather View 32 v70,2013-04-21 16:37:00,
2013-04-21 09:42:00,56.8,30.1,30.18,SW,224,3.0,6.0,36,0.00,,,0.00,Weather View 32 v70,2013-04-21 16:42:00,
2013-04-21 09:47:00,56.1,29.5,30.18,WSW,245,3.0,6.0,36,0.00,,,0.00,Weather View 32 v70,2013-04-21 16:47:00,
2013-04-21 09:52:00,56.1,29.5,30.18,NNE,13,5.0,6.0,36,0.00,,,0.00,Weather View 32 v70,2013-04-21 16:52:00,
2013-04-21 09:57:00,55.6,29.0,30.18,NE,43,4.0,6.0,36,0.00,,,0.00,Weather View 32 v70,2013-04-21 16:57:00,
2013-04-21 10:02:00,55.9,29.3,30.18,NE,46,0.0,6.0,36,0.00,,,0.00,Weather View 32 v70,2013-04-21 17:02:00,
2013-04-21 10:07:00,56.5,29.8,30.18,North,10,3.0,7.0,36,0.00,,,0.00,Weather View 32 v70,2013-04-21 17:07:00,
2013-04-21 10:12:00,54.9,28.4,30.18,North,357,0.0,7.0,36,0.00,,,0.00,Weather View 32 v70,2013-04-21 17:12:00,
2013-04-21 10:17:00,55.4,28.8,30.18,NNW,327,4.0,7.0,36,0.00,,,0.00,Weather View 32 v70,2013-04-21 17:17:00,
2013-04-21 10:22:00,55.2,28.7,30.18,NE,45,8.0,10.0,36,0.00,,,0.00,Weather View 32 v70,2013-04-21 17:22:00,
2013-04-21 10:27:00,55.2,28.7,30.18,NNW,342,4.0,10.0,36,0.00,,,0.00,Weather View 32 v70,2013-04-21 17:27:00,
2013-04-21 10:30:00,55.0,28.5,30.18,NNW,339,3.0,10.0,36,0.00,,,0.00,Weather View 32 v70,2013-04-21 17:30:00,
2013-04-21 10:32:00,54.9,28.4,30.18,NNW,348,4.0,10.0,36,0.00,,,0.00,Weather View 32 v70,2013-04-21 17:32:00,
2013-04-21 10:37:00,54.3,27.9,30.18,NE,55,3.0,10.0,36,0.00,,,0.00,Weather View 32 v70,2013-04-21 17:37:00,
2013-04-21 10:42:00,54.3,27.9,30.18,ENE,63,0.0,10.0,36,0.00,,,0.00,Weather View 32 v70,2013-04-21 17:42:00,
2013-04-21 10:47:00,54.5,28.0,30.18,ENE,61,4.0,10.0,36,0.00,,,0.00,Weather View 32 v70,2013-04-21 17:47:00,
2013-04-21 10:52:00,54.7,28.2,30.18,NW,304,2.0,10.0,36,0.00,,,0.00,Weather View 32 v70,2013-04-21 17:52:00,
2013-04-21 10:58:00,54.9,28.4,30.18,SE,140,0.0,10.0,36,0.00,,,0.00,Weather View 32 v70,2013-04-21 17:58:00,
2013-04-21 11:03:00,54.3,27.9,30.18,ESE,102,3.0,10.0,36,0.00,,,0.00,Weather View 32 v70,2013-04-21 18:03:00,
2013-04-21 11:08:00,54.0,27.6,30.18,NE,36,4.0,10.0,36,0.00,,,0.00,Weather View 32 v70,2013-04-21 18:08:00,
2013-04-21 11:13:00,54.1,27.7,30.18,NE,37,0.0,10.0,36,0.00,,,0.00,Weather View 32 v70,2013-04-21 18:13:00,
2013-04-21 11:18:00,54.5,28.0,30.18,NE,37,0.0,10.0,36,0.00,,,0.00,Weather View 32 v70,2013-04-21 18:18:00,
2013-04-21 11:23:00,55.0,29.2,30.18,ENE,74,3.0,8.0,37,0.00,,,0.00,Weather View 32 v70,2013-04-21 18:23:00,
2013-04-21 11:28:00,55.6,29.0,30.18,North,8,9.0,9.0,36,0.00,,,0.00,Weather View 32 v70,2013-04-21 18:28:00,
2013-04-21 11:30:00,55.9,29.3,30.18,NE,43,4.0,9.0,36,0.00,,,0.00,Weather View 32 v70,2013-04-21 18:30:00,
2013-04-21 11:33:00,55.9,29.3,30.18,ENE,57,6.0,9.0,36,0.00,,,0.00,Weather View 32 v70,2013-04-21 18:33:00,
2013-04-21 11:38:00,56.7,30.0,30.18,NNE,30,4.0,10.0,36,0.00,,,0.00,Weather View 32 v70,2013-04-21 18:38:00,
2013-04-21 11:43:00,57.0,30.3,30.18,NE,53,8.0,10.0,36,0.00,,,0.00,Weather View 32 v70,2013-04-21 18:43:00,
2013-04-21 11:48:00,57.0,30.3,30.18,NE,53,6.0,11.0,36,0.00,,,0.00,Weather View 32 v70,2013-04-21 18:48:00,
2013-04-21 11:53:00,56.5,29.8,30.18,ENE,65,6.0,11.0,36,0.00,,,0.00,Weather View 32 v70,2013-04-21 18:53:00,
2013-04-21 11:58:00,56.3,29.6,30.18,NE,36,8.0,11.0,36,0.00,,,0.00,Weather View 32 v70,2013-04-21 18:58:00,
2013-04-21 12:03:00,56.5,29.8,30.18,NE,53,9.0,12.0,36,0.00,,,0.00,Weather View 32 v70,2013-04-21 19:03:00,
2013-04-21 12:08:00,56.5,29.8,30.18,NNE,20,4.0,12.0,36,0.00,,,0.00,Weather View 32 v70,2013-04-21 19:08:00,
2013-04-21 12:13:00,56.8,30.8,30.18,NE,54,6.0,12.0,37,0.00,,,0.00,Weather View 32 v70,2013-04-21 19:13:00,
2013-04-21 12:18:00,56.5,29.8,30.18,ENE,74,5.0,12.0,36,0.00,,,0.00,Weather View 32 v70,2013-04-21 19:18:00,
2013-04-21 12:23:00,56.7,30.0,30.18,NE,54,10.0,12.0,36,0.00,,,0.00,Weather View 32 v70,2013-04-21 19:23:00,
2013-04-21 12:28:00,56.5,29.8,30.18,ENE,64,4.0,12.0,36,0.00,,,0.00,Weather View 32 v70,2013-04-21 19:28:00,
2013-04-21 12:30:00,56.3,30.3,30.18,ENE,71,6.0,12.0,37,0.00,,,0.00,Weather View 32 v70,2013-04-21 19:30:00,
2013-04-21 12:33:00,56.3,30.3,30.18,NNE,23,6.0,12.0,37,0.00,,,0.00,Weather View 32 v70,2013-04-21 19:33:00,
2013-04-21 12:38:00,56.3,30.3,30.18,East,79,4.0,13.0,37,0.00,,,0.00,Weather View 32 v70,2013-04-21 19:38:00,
2013-04-21 12:43:00,56.7,30.6,30.18,NNE,19,9.0,13.0,37,0.00,,,0.00,Weather View 32 v70,2013-04-21 19:43:00,
2013-04-21 12:48:00,57.4,30.6,30.18,NNE,17,8.0,13.0,36,0.00,,,0.00,Weather View 32 v70,2013-04-21 19:48:00,
2013-04-21 12:53:00,57.7,30.9,30.18,East,101,5.0,13.0,36,0.00,,,0.00,Weather View 32 v70,2013-04-21 19:53:00,
2013-04-21 12:58:00,58.3,31.4,30.18,NE,56,8.0,13.0,36,0.00,,,0.00,Weather View 32 v70,2013-04-21 19:58:00,
2013-04-21 13:03:00,59.2,32.2,30.18,NE,34,11.0,14.0,36,0.00,,,0.00,Weather View 32 v70,2013-04-21 20:03:00,
2013-04-21 13:08:00,59.4,32.3,30.18,NE,41,8.0,14.0,36,0.00,,,0.00,Weather View 32 v70,2013-04-21 20:08:00,
2013-04-21 13:13:00,59.5,32.5,30.18,ENE,58,9.0,14.0,36,0.00,,,0.00,Weather View 32 v70,2013-04-21 20:13:00,
2013-04-21 13:18:00,59.4,32.3,30.18,East,79,4.0,14.0,36,0.00,,,0.00,Weather View 32 v70,2013-04-21 20:18:00,
2013-04-21 13:24:00,59.4,31.6,30.18,NE,47,8.0,16.0,35,0.00,,,0.00,Weather View 32 v70,2013-04-21 20:24:00,
2013-04-21 13:29:00,59.2,32.2,30.18,East,83,12.0,16.0,36,0.00,,,0.00,Weather View 32 v70,2013-04-21 20:29:00,
2013-04-21 13:30:00,58.5,31.5,30.18,North,357,8.0,16.0,36,0.00,,,0.00,Weather View 32 v70,2013-04-21 20:30:00,
2013-04-21 13:34:00,58.1,31.2,30.18,NNE,22,6.0,16.0,36,0.00,,,0.00,Weather View 32 v70,2013-04-21 20:34:00,
2013-04-21 13:39:00,57.2,30.4,30.15,East,81,6.0,16.0,36,0.00,,,0.00,Weather View 32 v70,2013-04-21 20:39:00,
2013-04-21 13:44:00,57.0,30.9,30.15,NE,39,8.0,16.0,37,0.00,,,0.00,Weather View 32 v70,2013-04-21 20:44:00,
2013-04-21 13:49:00,57.2,30.4,30.15,ENE,61,13.0,16.0,36,0.00,,,0.00,Weather View 32 v70,2013-04-21 20:49:00,
2013-04-21 13:54:00,57.0,30.9,30.15,ENE,75,6.0,16.0,37,0.00,,,0.00,Weather View 32 v70,2013-04-21 20:54:00,
2013-04-21 13:59:00,57.0,30.9,30.15,NE,54,12.0,16.0,37,0.00,,,0.00,Weather View 32 v70,2013-04-21 20:59:00,
2013-04-21 14:04:00,57.6,31.4,30.15,NE,48,9.0,16.0,37,0.00,,,0.00,Weather View 32 v70,2013-04-21 21:04:00,
2013-04-21 14:09:00,57.9,31.1,30.18,NE,56,8.0,16.0,36,0.00,,,0.00,Weather View 32 v70,2013-04-21 21:09:00,
2013-04-21 14:14:00,58.5,31.5,30.18,NE,49,8.0,16.0,36,0.00,,,0.00,Weather View 32 v70,2013-04-21 21:14:00,
2013-04-21 14:19:00,58.8,31.9,30.15,NE,55,8.0,16.0,36,0.00,,,0.00,Weather View 32 v70,2013-04-21 21:19:00,
2013-04-21 14:24:00,58.6,31.7,30.15,NNE,28,8.0,16.0,36,0.00,,,0.00,Weather View 32 v70,2013-04-21 21:24:00,
2013-04-21 14:29:00,58.5,31.5,30.15,NNE,31,8.0,16.0,36,0.00,,,0.00,Weather View 32 v70,2013-04-21 21:29:00,
2013-04-21 14:34:00,58.5,31.5,30.15,ENE,65,13.0,16.0,36,0.00,,,0.00,Weather View 32 v70,2013-04-21 21:34:00,
2013-04-21 14:39:00,58.6,31.7,30.15,NE,38,6.0,16.0,36,0.00,,,0.00,Weather View 32 v70,2013-04-21 21:39:00,
2013-04-21 14:44:00,58.8,31.9,30.15,ENE,65,8.0,16.0,36,0.00,,,0.00,Weather View 32 v70,2013-04-21 21:44:00,
2013-04-21 14:49:00,59.2,32.2,30.18,ENE,60,10.0,16.0,36,0.00,,,0.00,Weather View 32 v70,2013-04-21 21:49:00,
2013-04-21 14:54:00,59.2,32.2,30.18,ENE,58,8.0,16.0,36,0.00,,,0.00,Weather View 32 v70,2013-04-21 21:54:00,
2013-04-21 14:59:00,58.8,31.9,30.18,North,11,9.0,16.0,36,0.00,,,0.00,Weather View 32 v70,2013-04-21 21:59:00,
2013-04-21 15:04:00,59.2,32.2,30.15,ENE,69,8.0,16.0,36,0.00,,,0.00,Weather View 32 v70,2013-04-21 22:04:00,
2013-04-21 15:09:00,59.4,32.3,30.15,ENE,58,11.0,16.0,36,0.00,,,0.00,Weather View 32 v70,2013-04-21 22:09:00,
2013-04-21 15:14:00,58.8,31.9,30.15,East,80,13.0,16.0,36,0.00,,,0.00,Weather View 32 v70,2013-04-21 22:14:00,
2013-04-21 15:19:00,59.0,32.0,30.15,NE,37,11.0,16.0,36,0.00,,,0.00,Weather View 32 v70,2013-04-21 22:19:00,
2013-04-21 15:24:00,59.0,32.0,30.15,NE,41,6.0,16.0,36,0.00,,,0.00,Weather View 32 v70,2013-04-21 22:24:00,
2013-04-21 15:29:00,58.8,31.9,30.15,NE,54,13.0,16.0,36,0.00,,,0.00,Weather View 32 v70,2013-04-21 22:29:00,
2013-04-21 15:34:00,59.4,32.3,30.15,NNE,30,12.0,16.0,36,0.00,,,0.00,Weather View 32 v70,2013-04-21 22:34:00,
2013-04-21 15:39:00,60.1,33.0,30.15,ENE,62,13.0,16.0,36,0.00,,,0.00,Weather View 32 v70,2013-04-21 22:39:00,
2013-04-21 15:44:00,59.7,32.7,30.15,ENE,69,4.0,17.0,36,0.00,,,0.00,Weather View 32 v70,2013-04-21 22:44:00,
2013-04-21 15:49:00,59.9,32.8,30.18,ENE,65,8.0,17.0,36,0.00,,,0.00,Weather View 32 v70,2013-04-21 22:49:00,
2013-04-21 15:54:00,59.7,32.7,30.18,ENE,68,5.0,17.0,36,0.00,,,0.00,Weather View 32 v70,2013-04-21 22:54:00,
2013-04-21 15:59:00,59.9,32.8,30.18,ENE,60,13.0,17.0,36,0.00,,,0.00,Weather View 32 v70,2013-04-21 22:59:00,
2013-04-21 16:04:00,59.9,32.8,30.18,NE,54,6.0,17.0,36,0.00,,,0.00,Weather View 32 v70,2013-04-21 23:04:00,
2013-04-21 16:10:00,60.6,33.5,30.18,NE,42,5.0,17.0,36,0.00,,,0.00,Weather View 32 v70,2013-04-21 23:10:00,
2013-04-21 16:15:00,59.4,32.3,30.18,NE,46,8.0,17.0,36,0.00,,,0.00,Weather View 32 v70,2013-04-21 23:15:00,
2013-04-21 16:20:00,59.2,32.2,30.15,ENE,69,5.0,17.0,36,0.00,,,0.00,Weather View 32 v70,2013-04-21 23:20:00,
2013-04-21 16:25:00,59.4,32.3,30.15,ENE,66,6.0,17.0,36,0.00,,,0.00,Weather View 32 v70,2013-04-21 23:25:00,
2013-04-21 16:30:00,59.4,32.3,30.15,NE,43,8.0,17.0,36,0.00,,,0.00,Weather View 32 v70,2013-04-21 23:30:00,
2013-04-21 16:35:00,59.2,32.2,30.15,ENE,61,6.0,17.0,36,0.00,,,0.00,Weather View 32 v70,2013-04-21 23:35:00,
2013-04-21 16:40:00,58.3,31.4,30.15,East,80,6.0,17.0,36,0.00,,,0.00,Weather View 32 v70,2013-04-21 23:40:00,
2013-04-21 16:45:00,58.1,31.2,30.15,NNE,33,11.0,19.0,36,0.00,,,0.00,Weather View 32 v70,2013-04-21 23:45:00,
2013-04-21 16:50:00,58.5,31.5,30.15,NE,55,5.0,19.0,36,0.00,,,0.00,Weather View 32 v70,2013-04-21 23:50:00,
2013-04-21 16:55:00,60.6,33.5,30.15,East,79,5.0,19.0,36,0.00,,,0.00,Weather View 32 v70,2013-04-21 23:55:00,
2013-04-21 17:00:00,64.0,35.8,30.15,East,92,5.0,19.0,35,0.00,,,0.00,Weather View 32 v70,2013-04-22 00:00:00,
2013-04-21 17:05:00,64.9,35.8,30.15,NNE,19,5.0,19.0,34,0.00,,,0.00,Weather View 32 v70,2013-04-22 00:05:00,
2013-04-21 17:10:00,65.7,36.5,30.15,ENE,67,5.0,19.0,34,0.00,,,0.00,Weather View 32 v70,2013-04-22 00:10:00,
2013-04-21 17:15:00,63.0,34.8,30.15,ENE,59,10.0,19.0,35,0.00,,,0.00,Weather View 32 v70,2013-04-22 00:15:00,
2013-04-21 17:20:00,61.9,33.9,30.15,ESE,108,11.0,19.0,35,0.00,,,0.00,Weather View 32 v70,2013-04-22 00:20:00,
2013-04-21 17:25:00,63.1,35.0,30.15,North,0,8.0,19.0,35,0.00,,,0.00,Weather View 32 v70,2013-04-22 00:25:00,
2013-04-21 17:30:00,63.9,35.6,30.15,ENE,61,6.0,19.0,35,0.00,,,0.00,Weather View 32 v70,2013-04-22 00:30:00,
2013-04-21 17:35:00,63.9,35.6,30.15,ENE,60,14.0,19.0,35,0.00,,,0.00,Weather View 32 v70,2013-04-22 00:35:00,
2013-04-21 17:40:00,61.7,33.7,30.15,ENE,67,17.0,19.0,35,0.00,,,0.00,Weather View 32 v70,2013-04-22 00:40:00,
2013-04-21 17:45:00,58.1,31.2,30.15,NNE,19,5.0,18.0,36,0.00,,,0.00,Weather View 32 v70,2013-04-22 00:45:00,
2013-04-21 17:50:00,58.3,31.4,30.15,North,11,9.0,18.0,36,0.00,,,0.00,Weather View 32 v70,2013-04-22 00:50:00,
2013-04-21 17:55:00,58.3,31.4,30.15,ENE,73,12.0,18.0,36,0.00,,,0.00,Weather View 32 v70,2013-04-22 00:55:00,
2013-04-21 18:00:00,58.8,31.9,30.15,NE,52,10.0,18.0,36,0.00,,,0.00,Weather View 32 v70,2013-04-22 01:00:00,
2013-04-21 18:05:00,59.5,32.5,30.15,NE,45,8.0,18.0,36,0.00,,,0.00,Weather View 32 v70,2013-04-22 01:05:00,
2013-04-21 18:10:00,61.5,33.5,30.15,East,85,6.0,18.0,35,0.00,,,0.00,Weather View 32 v70,2013-04-22 01:10:00,
2013-04-21 18:15:00,60.6,33.5,30.15,NE,51,5.0,18.0,36,0.00,,,0.00,Weather View 32 v70,2013-04-22 01:15:00,
2013-04-21 18:20:00,59.7,32.7,30.15,NE,52,5.0,18.0,36,0.00,,,0.00,Weather View 32 v70,2013-04-22 01:20:00,
2013-04-21 18:25:00,57.9,31.1,30.15,ENE,61,8.0,18.0,36,0.00,,,0.00,Weather View 32 v70,2013-04-22 01:25:00,
2013-04-21 18:30:00,55.2,30.0,30.15,NNE,26,13.0,18.0,38,0.00,,,0.00,Weather View 32 v70,2013-04-22 01:30:00,
2013-04-21 18:36:00,54.1,29.7,30.15,NE,46,9.0,18.0,39,0.00,,,0.00,Weather View 32 v70,2013-04-22 01:36:00,
2013-04-21 18:41:00,53.2,29.5,30.15,East,88,8.0,18.0,40,0.00,,,0.00,Weather View 32 v70,2013-04-22 01:41:00,
2013-04-21 18:46:00,52.9,29.8,30.15,NE,39,8.0,17.0,41,0.00,,,0.00,Weather View 32 v70,2013-04-22 01:46:00,
2013-04-21 18:51:00,52.3,29.3,30.15,East,85,8.0,17.0,41,0.00,,,0.00,Weather View 32 v70,2013-04-22 01:51:00,
2013-04-21 18:56:00,52.2,29.7,30.15,East,97,6.0,17.0,42,0.00,,,0.00,Weather View 32 v70,2013-04-22 01:56:00,
2013-04-21 19:01:00,52.0,30.1,30.15,ENE,58,8.0,17.0,43,0.00,,,0.00,Weather View 32 v70,2013-04-22 02:01:00,
2013-04-21 19:06:00,51.6,29.8,30.15,NNE,29,8.0,17.0,43,0.00,,,0.00,Weather View 32 v70,2013-04-22 02:06:00,
2013-04-21 19:11:00,51.1,29.9,30.15,ESE,106,11.0,17.0,44,0.00,,,0.00,Weather View 32 v70,2013-04-22 02:11:00,
2013-04-21 19:16:00,51.1,29.9,30.15,ENE,60,6.0,17.0,44,0.00,,,0.00,Weather View 32 v70,2013-04-22 02:16:00,
2013-04-21 19:21:00,50.7,30.1,30.15,NE,54,6.0,17.0,45,0.00,,,0.00,Weather View 32 v70,2013-04-22 02:21:00,
2013-04-21 19:26:00,50.5,29.9,30.15,East,87,6.0,15.0,45,0.00,,,0.00,Weather View 32 v70,2013-04-22 02:26:00,
2013-04-21 19:31:00,50.2,30.2,30.15,NE,51,0.0,15.0,46,0.00,,,0.00,Weather View 32 v70,2013-04-22 02:31:00,
2013-04-21 19:36:00,50.0,30.0,30.15,NE,51,5.0,15.0,46,0.00,,,0.00,Weather View 32 v70,2013-04-22 02:36:00,
2013-04-21 19:41:00,49.6,30.2,30.15,NE,52,6.0,15.0,47,0.00,,,0.00,Weather View 32 v70,2013-04-22 02:41:00,
2013-04-21 19:46:00,49.5,30.0,30.15,North,7,5.0,15.0,47,0.00,,,0.00,Weather View 32 v70,2013-04-22 02:46:00,
2013-04-21 19:51:00,49.1,29.7,30.18,ENE,71,3.0,13.0,47,0.00,,,0.00,Weather View 32 v70,2013-04-22 02:51:00,
2013-04-21 19:56:00,48.7,29.9,30.18,ESE,102,3.0,13.0,48,0.00,,,0.00,Weather View 32 v70,2013-04-22 02:56:00,
2013-04-21 20:01:00,48.6,29.7,30.18,East,84,3.0,11.0,48,0.00,,,0.00,Weather View 32 v70,2013-04-22 03:01:00,
2013-04-21 20:06:00,48.2,29.4,30.15,ENE,69,4.0,11.0,48,0.00,,,0.00,Weather View 32 v70,2013-04-22 03:06:00,
2013-04-21 20:11:00,47.7,29.4,30.15,East,82,3.0,11.0,49,0.00,,,0.00,Weather View 32 v70,2013-04-22 03:11:00,
2013-04-21 20:16:00,47.3,29.6,30.15,SE,126,5.0,10.0,50,0.00,,,0.00,Weather View 32 v70,2013-04-22 03:16:00,
2013-04-21 20:21:00,46.9,29.7,30.18,SE,124,2.0,10.0,51,0.00,,,0.00,Weather View 32 v70,2013-04-22 03:21:00,
2013-04-21 20:26:00,46.8,29.6,30.18,SE,125,2.0,10.0,51,0.00,,,0.00,Weather View 32 v70,2013-04-22 03:26:00,
2013-04-21 20:32:00,46.2,29.1,30.18,SE,125,0.0,10.0,51,0.00,,,0.00,Weather View 32 v70,2013-04-22 03:32:00,
2013-04-21 20:37:00,46.0,28.9,30.18,SE,125,0.0,10.0,51,0.00,,,0.00,Weather View 32 v70,2013-04-22 03:37:00,
2013-04-21 20:42:00,45.9,29.7,30.18,SE,125,0.0,7.0,53,0.00,,,0.00,Weather View 32 v70,2013-04-22 03:42:00,
2013-04-21 20:47:00,45.9,30.1,30.18,ENE,63,4.0,7.0,54,0.00,,,0.00,Weather View 32 v70,2013-04-22 03:47:00,
2013-04-21 20:52:00,46.0,30.3,30.18,ENE,57,4.0,7.0,54,0.00,,,0.00,Weather View 32 v70,2013-04-22 03:52:00,
2013-04-21 20:57:00,46.2,30.5,30.18,ENE,62,6.0,7.0,54,0.00,,,0.00,Weather View 32 v70,2013-04-22 03:57:00,
2013-04-21 21:01:00,46.6,30.3,30.18,North,0,6.0,9.0,53,0.00,,,0.00,Weather View 32 v70,2013-04-22 04:01:00,
2013-04-21 21:06:00,46.8,30.0,30.18,NE,48,8.0,11.0,52,0.00,,,0.00,Weather View 32 v70,2013-04-22 04:06:00,
2013-04-21 21:11:00,46.8,29.6,30.18,NE,50,3.0,12.0,51,0.00,,,0.00,Weather View 32 v70,2013-04-22 04:11:00,
2013-04-21 21:15:00,46.8,29.1,30.18,NE,54,5.0,12.0,50,0.00,,,0.00,Weather View 32 v70,2013-04-22 04:15:00,
2013-04-21 21:20:00,46.6,29.4,30.18,NE,38,4.0,12.0,51,0.00,,,0.00,Weather View 32 v70,2013-04-22 04:20:00,
2013-04-21 21:25:00,46.4,29.7,30.18,NNE,33,4.0,12.0,52,0.00,,,0.00,Weather View 32 v70,2013-04-22 04:25:00,
2013-04-21 21:30:00,46.4,29.7,30.18,NE,48,4.0,12.0,52,0.00,,,0.00,Weather View 32 v70,2013-04-22 04:30:00,
2013-04-21 21:35:00,46.2,30.0,30.18,NE,49,5.0,12.0,53,0.00,,,0.00,Weather View 32 v70,2013-04-22 04:35:00,
2013-04-21 21:40:00,46.0,29.8,30.18,North,9,5.0,12.0,53,0.00,,,0.00,Weather View 32 v70,2013-04-22 04:40:00,
2013-04-21 21:45:00,45.7,30.0,30.18,NNE,13,3.0,12.0,54,0.00,,,0.00,Weather View 32 v70,2013-04-22 04:45:00,
2013-04-21 21:49:00,45.7,30.0,30.18,NNE,13,3.0,12.0,54,0.00,,,0.00,Weather View 32 v70,2013-04-22 04:49:00,
2013-04-21 21:54:00,45.1,29.5,30.18,NE,38,5.0,12.0,54,0.00,,,0.00,Weather View 32 v70,2013-04-22 04:54:00,
2013-04-21 21:59:00,45.3,29.2,30.18,NE,49,5.0,12.0,53,0.00,,,0.00,Weather View 32 v70,2013-04-22 04:59:00,
2013-04-21 22:04:00,45.5,28.9,30.21,East,84,3.0,12.0,52,0.00,,,0.00,Weather View 32 v70,2013-04-22 05:04:00,
2013-04-21 22:10:00,45.3,29.2,30.21,East,90,3.0,12.0,53,0.00,,,0.00,Weather View 32 v70,2013-04-22 05:10:00,
2013-04-21 22:15:00,45.1,29.5,30.21,East,79,6.0,10.0,54,0.00,,,0.00,Weather View 32 v70,2013-04-22 05:15:00,
2013-04-21 22:19:00,44.8,29.1,30.21,ESE,111,5.0,10.0,54,0.00,,,0.00,Weather View 32 v70,2013-04-22 05:19:00,
2013-04-21 22:25:00,44.6,29.4,30.21,East,79,5.0,10.0,55,0.00,,,0.00,Weather View 32 v70,2013-04-22 05:25:00,
2013-04-21 22:30:00,44.2,29.5,30.21,ENE,67,8.0,10.0,56,0.00,,,0.00,Weather View 32 v70,2013-04-22 05:30:00,
2013-04-21 22:35:00,44.1,30.6,30.21,ESE,123,8.0,9.0,59,0.00,,,0.00,Weather View 32 v70,2013-04-22 05:35:00,
2013-04-21 22:40:00,43.7,30.3,30.21,East,79,4.0,9.0,59,0.00,,,0.00,Weather View 32 v70,2013-04-22 05:40:00,
2013-04-21 22:45:00,43.0,30.4,30.21,ESE,118,4.0,9.0,61,0.00,,,0.00,Weather View 32 v70,2013-04-22 05:45:00,
2013-04-21 22:50:00,42.6,30.5,30.21,ESE,111,5.0,9.0,62,0.00,,,0.00,Weather View 32 v70,2013-04-22 05:50:00,
2013-04-21 22:55:00,42.1,30.8,30.21,ESE,116,5.0,9.0,64,0.00,,,0.00,Weather View 32 v70,2013-04-22 05:55:00,
2013-04-21 23:00:00,41.7,30.4,30.21,East,79,3.0,9.0,64,0.00,,,0.00,Weather View 32 v70,2013-04-22 06:00:00,
2013-04-21 23:05:00,41.5,30.6,30.21,East,90,3.0,9.0,65,0.00,,,0.00,Weather View 32 v70,2013-04-22 06:05:00,
2013-04-21 23:10:00,41.2,30.3,30.21,East,100,3.0,9.0,65,0.00,,,0.00,Weather View 32 v70,2013-04-22 06:10:00,
2013-04-21 23:15:00,40.8,30.3,30.21,ESE,114,4.0,9.0,66,0.00,,,0.00,Weather View 32 v70,2013-04-22 06:15:00,
2013-04-21 23:20:00,40.5,30.4,30.21,ESE,110,3.0,9.0,67,0.00,,,0.00,Weather View 32 v70,2013-04-22 06:20:00,
2013-04-21 23:25:00,40.5,30.7,30.21,ESE,110,0.0,9.0,68,0.00,,,0.00,Weather View 32 v70,2013-04-22 06:25:00,
2013-04-21 23:30:00,40.1,30.0,30.21,ESE,110,3.0,9.0,67,0.00,,,0.00,Weather View 32 v70,2013-04-22 06:30:00,
2013-04-21 23:35:00,40.1,30.0,30.21,ESE,110,0.0,9.0,67,0.00,,,0.00,Weather View 32 v70,2013-04-22 06:35:00,
2013-04-21 23:40:00,39.7,29.7,30.21,ESE,110,0.0,8.0,67,0.00,,,0.00,Weather View 32 v70,2013-04-22 06:40:00,
2013-04-21 23:45:00,39.2,28.8,30.21,ESE,110,0.0,8.0,66,0.00,,,0.00,Weather View 32 v70,2013-04-22 06:45:00,
2013-04-21 23:50:00,38.8,28.8,30.24,ESE,110,0.0,8.0,67,0.00,,,0.00,Weather View 32 v70,2013-04-22 06:50:00,
2013-04-21 23:55:00,38.5,28.1,30.24,ESE,110,0.0,6.0,66,0.00,,,0.00,Weather View 32 v70,2013-04-22 06:55:00,